sensor_id;sensor_type;location;lat;lon;timestamp;temperature;humidity
7564;DHT22;3823;53.586;10.040;2023-05-14T04:02:35;13.60;1.00
7564;DHT22;3823;53.586;10.040;2023-05-14T04:05:00;13.60;1.00
7564;DHT22;3823;53.586;10.040;2023-05-14T04:07:26;13.70;1.00
7564;DHT22;3823;53.586;10.040;2023-05-14T04:09:51;13.60;1.00
7564;DHT22;3823;53.586;10.040;2023-05-14T04:12:17;13.60;1.00
7564;DHT22;3823;53.586;10.040;2023-05-14T04:14:44;13.60;1.00
7564;DHT22;3823;53.586;10.040;2023-05-14T04:17:09;13.60;1.00
7564;DHT22;3823;53.586;10.040;2023-05-14T04:19:35;13.60;1.00
7564;DHT22;3823;53.586;10.040;2023-05-14T04:22:00;13.60;1.00
7564;DHT22;3823;53.586;10.040;2023-05-14T04:24:26;13.60;1.00
7564;DHT22;3823;53.586;10.040;2023-05-14T04:26:51;13.70;1.00
7564;DHT22;3823;53.586;10.040;2023-05-14T04:29:17;13.70;1.00
7564;DHT22;3823;53.586;10.040;2023-05-14T04:31:43;13.50;1.00
7564;DHT22;3823;53.586;10.040;2023-05-14T04:34:08;13.30;1.00
7564;DHT22;3823;53.586;10.040;2023-05-14T04:36:34;13.30;1.00
7564;DHT22;3823;53.586;10.040;2023-05-14T04:39:00;13.30;1.00
7564;DHT22;3823;53.586;10.040;2023-05-14T04:41:25;13.40;1.00
7564;DHT22;3823;53.586;10.040;2023-05-14T04:43:54;13.50;1.00
7564;DHT22;3823;53.586;10.040;2023-05-14T04:46:20;13.70;1.00
7564;DHT22;3823;53.586;10.040;2023-05-14T04:48:45;13.70;1.00
7564;DHT22;3823;53.586;10.040;2023-05-14T04:51:11;13.80;1.00
7564;DHT22;3823;53.586;10.040;2023-05-14T04:53:36;14.00;1.00
7564;DHT22;3823;53.586;10.040;2023-05-14T04:56:02;14.20;1.00
7564;DHT22;3823;53.586;10.040;2023-05-14T04:58:27;14.30;1.00
7564;DHT22;3823;53.586;10.040;2023-05-14T05:00:55;14.40;1.00
7564;DHT22;3823;53.586;10.040;2023-05-14T05:03:21;14.40;1.00
7564;DHT22;3823;53.586;10.040;2023-05-14T05:05:46;14.60;1.00
7564;DHT22;3823;53.586;10.040;2023-05-14T05:08:12;14.70;1.00
7564;DHT22;3823;53.586;10.040;2023-05-14T05:10:37;14.80;1.00
7564;DHT22;3823;53.586;10.040;2023-05-14T05:13:03;14.90;1.00
7564;DHT22;3823;53.586;10.040;2023-05-14T05:15:28;14.90;1.00
7564;DHT22;3823;53.586;10.040;2023-05-14T05:17:54;14.90;1.00
7564;DHT22;3823;53.586;10.040;2023-05-14T05:20:19;14.90;1.00
7564;DHT22;3823;53.586;10.040;2023-05-14T05:22:45;15.10;1.00
7564;DHT22;3823;53.586;10.040;2023-05-14T05:25:10;15.10;1.00
7564;DHT22;3823;53.586;10.040;2023-05-14T05:27:37;15.20;1.00
7564;DHT22;3823;53.586;10.040;2023-05-14T05:30:03;15.20;1.00
7564;DHT22;3823;53.586;10.040;2023-05-14T05:32:29;15.30;1.00
7564;DHT22;3823;53.586;10.040;2023-05-14T05:34:55;15.40;1.00
7564;DHT22;3823;53.586;10.040;2023-05-14T05:37:20;15.50;1.00
7564;DHT22;3823;53.586;10.040;2023-05-14T05:39:46;15.40;1.00
7564;DHT22;3823;53.586;10.040;2023-05-14T05:42:13;15.40;1.00
7564;DHT22;3823;53.586;10.040;2023-05-14T05:44:38;15.40;1.00
7564;DHT22;3823;53.586;10.040;2023-05-14T05:47:04;15.50;1.00
7564;DHT22;3823;53.586;10.040;2023-05-14T05:49:29;15.50;1.00
7564;DHT22;3823;53.586;10.040;2023-05-14T05:51:55;15.50;1.00
7564;DHT22;3823;53.586;10.040;2023-05-14T05:54:22;15.50;1.00
7564;DHT22;3823;53.586;10.040;2023-05-14T05:56:49;15.70;1.00
7564;DHT22;3823;53.586;10.040;2023-05-14T05:59:14;15.90;1.00
7564;DHT22;3823;53.586;10.040;2023-05-14T06:01:40;16.10;1.00
7564;DHT22;3823;53.586;10.040;2023-05-14T06:04:08;16.30;1.00
7564;DHT22;3823;53.586;10.040;2023-05-14T06:06:33;16.50;1.00
7564;DHT22;3823;53.586;10.040;2023-05-14T06:08:59;16.60;1.00
7564;DHT22;3823;53.586;10.040;2023-05-14T06:11:26;16.60;1.00
7564;DHT22;3823;53.586;10.040;2023-05-14T06:13:52;16.80;1.00
7564;DHT22;3823;53.586;10.040;2023-05-14T06:16:18;17.10;1.00
7564;DHT22;3823;53.586;10.040;2023-05-14T06:18:43;17.10;1.00
7564;DHT22;3823;53.586;10.040;2023-05-14T06:21:09;17.30;1.00
7564;DHT22;3823;53.586;10.040;2023-05-14T06:23:35;17.40;1.00
7564;DHT22;3823;53.586;10.040;2023-05-14T06:26:01;17.40;1.00
7564;DHT22;3823;53.586;10.040;2023-05-14T06:28:26;17.50;1.00
7564;DHT22;3823;53.586;10.040;2023-05-14T06:30:52;17.50;1.00
7564;DHT22;3823;53.586;10.040;2023-05-14T06:33:19;17.40;1.00
7564;DHT22;3823;53.586;10.040;2023-05-14T06:35:47;17.30;1.00
7564;DHT22;3823;53.586;10.040;2023-05-14T06:38:13;17.30;1.00
7564;DHT22;3823;53.586;10.040;2023-05-14T06:40:38;17.50;1.00
7564;DHT22;3823;53.586;10.040;2023-05-14T06:43:04;17.70;1.00
7564;DHT22;3823;53.586;10.040;2023-05-14T06:45:31;17.90;1.00
7564;DHT22;3823;53.586;10.040;2023-05-14T06:47:56;17.90;1.00
7564;DHT22;3823;53.586;10.040;2023-05-14T06:50:22;18.00;1.00
7564;DHT22;3823;53.586;10.040;2023-05-14T06:52:47;18.00;1.00
7564;DHT22;3823;53.586;10.040;2023-05-14T06:55:13;18.30;1.00
7564;DHT22;3823;53.586;10.040;2023-05-14T06:57:38;18.50;1.00
7564;DHT22;3823;53.586;10.040;2023-05-14T07:00:04;18.60;1.00
7564;DHT22;3823;53.586;10.040;2023-05-14T07:02:32;18.50;1.00
7564;DHT22;3823;53.586;10.040;2023-05-14T07:04:58;18.60;1.00
7564;DHT22;3823;53.586;10.040;2023-05-14T07:07:23;18.80;1.00
7564;DHT22;3823;53.586;10.040;2023-05-14T07:09:49;19.10;1.00
7564;DHT22;3823;53.586;10.040;2023-05-14T07:12:15;19.40;1.00
7564;DHT22;3823;53.586;10.040;2023-05-14T07:14:40;19.50;1.00
7564;DHT22;3823;53.586;10.040;2023-05-14T07:17:06;19.60;1.00
7564;DHT22;3823;53.586;10.040;2023-05-14T07:19:31;19.50;1.00
7564;DHT22;3823;53.586;10.040;2023-05-14T07:21:57;19.50;1.00
7564;DHT22;3823;53.586;10.040;2023-05-14T07:24:22;19.60;1.00
7564;DHT22;3823;53.586;10.040;2023-05-14T07:26:48;19.80;1.00
7564;DHT22;3823;53.586;10.040;2023-05-14T07:29:14;19.90;1.00
7564;DHT22;3823;53.586;10.040;2023-05-14T07:31:39;20.30;1.00
7564;DHT22;3823;53.586;10.040;2023-05-14T07:34:05;20.40;1.00
7564;DHT22;3823;53.586;10.040;2023-05-14T07:36:31;20.30;1.00
7564;DHT22;3823;53.586;10.040;2023-05-14T07:38:57;20.20;1.00
7564;DHT22;3823;53.586;10.040;2023-05-14T07:41:23;20.40;1.00
7564;DHT22;3823;53.586;10.040;2023-05-14T07:43:48;20.70;1.00
7564;DHT22;3823;53.586;10.040;2023-05-14T07:46:14;20.90;1.00
7564;DHT22;3823;53.586;10.040;2023-05-14T07:48:39;20.80;1.00
7564;DHT22;3823;53.586;10.040;2023-05-14T07:51:05;20.60;1.00
7564;DHT22;3823;53.586;10.040;2023-05-14T07:53:30;20.70;1.00
7564;DHT22;3823;53.586;10.040;2023-05-14T07:55:56;20.70;1.00
7564;DHT22;3823;53.586;10.040;2023-05-14T07:58:24;21.00;1.00
7564;DHT22;3823;53.586;10.040;2023-05-14T08:00:51;20.90;1.00
7564;DHT22;3823;53.586;10.040;2023-05-14T08:03:16;20.80;1.00
7564;DHT22;3823;53.586;10.040;2023-05-14T08:05:42;21.30;1.00
7564;DHT22;3823;53.586;10.040;2023-05-14T08:08:07;21.50;1.00
7564;DHT22;3823;53.586;10.040;2023-05-14T08:10:33;21.50;1.00
7564;DHT22;3823;53.586;10.040;2023-05-14T08:12:58;21.50;1.00
7564;DHT22;3823;53.586;10.040;2023-05-14T08:15:24;21.80;1.00
7564;DHT22;3823;53.586;10.040;2023-05-14T08:17:49;21.40;1.00
7564;DHT22;3823;53.586;10.040;2023-05-14T08:20:15;21.30;1.00
7564;DHT22;3823;53.586;10.040;2023-05-14T08:22:40;21.60;1.00
7564;DHT22;3823;53.586;10.040;2023-05-14T08:25:06;21.30;1.00
7564;DHT22;3823;53.586;10.040;2023-05-14T08:27:32;21.00;1.00
7564;DHT22;3823;53.586;10.040;2023-05-14T08:29:57;21.60;1.00
7564;DHT22;3823;53.586;10.040;2023-05-14T08:32:23;21.80;1.00
7564;DHT22;3823;53.586;10.040;2023-05-14T08:34:49;21.80;1.00
7564;DHT22;3823;53.586;10.040;2023-05-14T08:37:14;22.10;1.00
7564;DHT22;3823;53.586;10.040;2023-05-14T08:39:40;21.80;1.00
7564;DHT22;3823;53.586;10.040;2023-05-14T08:42:06;21.60;1.00
7564;DHT22;3823;53.586;10.040;2023-05-14T08:44:41;21.50;1.00
7564;DHT22;3823;53.586;10.040;2023-05-14T08:47:11;21.50;1.00
7564;DHT22;3823;53.586;10.040;2023-05-14T08:49:42;21.80;1.00
7564;DHT22;3823;53.586;10.040;2023-05-14T08:52:09;21.80;1.00
7564;DHT22;3823;53.586;10.040;2023-05-14T08:54:35;21.60;1.00
7564;DHT22;3823;53.586;10.040;2023-05-14T08:57:04;21.60;1.00
7564;DHT22;3823;53.586;10.040;2023-05-14T08:59:30;21.70;1.00
7564;DHT22;3823;53.586;10.040;2023-05-14T09:01:59;22.30;1.00
7564;DHT22;3823;53.586;10.040;2023-05-14T09:04:25;22.00;1.00
7564;DHT22;3823;53.586;10.040;2023-05-14T09:06:54;22.00;1.00
7564;DHT22;3823;53.586;10.040;2023-05-14T09:09:20;22.10;1.00
7564;DHT22;3823;53.586;10.040;2023-05-14T09:11:47;22.30;1.00
7564;DHT22;3823;53.586;10.040;2023-05-14T09:14:13;22.50;1.00
7564;DHT22;3823;53.586;10.040;2023-05-14T09:16:39;22.60;1.00
7564;DHT22;3823;53.586;10.040;2023-05-14T09:19:08;22.90;1.00
7564;DHT22;3823;53.586;10.040;2023-05-14T09:21:33;23.30;1.00
7564;DHT22;3823;53.586;10.040;2023-05-14T09:23:59;23.00;1.00
7564;DHT22;3823;53.586;10.040;2023-05-14T09:26:26;22.40;1.00
7564;DHT22;3823;53.586;10.040;2023-05-14T09:28:59;22.20;1.00
7564;DHT22;3823;53.586;10.040;2023-05-14T09:31:30;22.60;1.00
7564;DHT22;3823;53.586;10.040;2023-05-14T09:33:59;22.60;1.00
7564;DHT22;3823;53.586;10.040;2023-05-14T09:36:25;22.50;1.00
7564;DHT22;3823;53.586;10.040;2023-05-14T09:38:56;23.10;1.00
7564;DHT22;3823;53.586;10.040;2023-05-14T09:41:22;23.00;1.00
7564;DHT22;3823;53.586;10.040;2023-05-14T09:43:50;22.80;1.00
7564;DHT22;3823;53.586;10.040;2023-05-14T09:46:16;22.10;1.00
7564;DHT22;3823;53.586;10.040;2023-05-14T09:48:42;22.00;1.00
7564;DHT22;3823;53.586;10.040;2023-05-14T09:51:09;21.90;1.00
7564;DHT22;3823;53.586;10.040;2023-05-14T09:53:35;22.20;1.00
7564;DHT22;3823;53.586;10.040;2023-05-14T09:56:01;22.20;1.00
7564;DHT22;3823;53.586;10.040;2023-05-14T09:58:27;22.40;1.00
7564;DHT22;3823;53.586;10.040;2023-05-14T10:00:54;22.20;1.00
7564;DHT22;3823;53.586;10.040;2023-05-14T10:03:24;22.50;1.00
7564;DHT22;3823;53.586;10.040;2023-05-14T10:05:50;22.30;1.00
7564;DHT22;3823;53.586;10.040;2023-05-14T10:08:23;21.90;1.00
7564;DHT22;3823;53.586;10.040;2023-05-14T10:10:50;21.70;1.00
7564;DHT22;3823;53.586;10.040;2023-05-14T10:13:19;21.40;1.00
7564;DHT22;3823;53.586;10.040;2023-05-14T10:16:16;21.50;1.00
7564;DHT22;3823;53.586;10.040;2023-05-14T10:18:45;21.50;1.00
7564;DHT22;3823;53.586;10.040;2023-05-14T10:21:13;21.40;1.00
7564;DHT22;3823;53.586;10.040;2023-05-14T10:23:39;21.40;1.00
7564;DHT22;3823;53.586;10.040;2023-05-14T10:26:06;21.40;1.00
7564;DHT22;3823;53.586;10.040;2023-05-14T10:28:32;21.90;1.00
7564;DHT22;3823;53.586;10.040;2023-05-14T10:30:58;21.60;1.00
7564;DHT22;3823;53.586;10.040;2023-05-14T10:33:25;21.60;1.00
7564;DHT22;3823;53.586;10.040;2023-05-14T10:36:01;21.40;1.00
7564;DHT22;3823;53.586;10.040;2023-05-14T10:38:28;21.60;1.00
7564;DHT22;3823;53.586;10.040;2023-05-14T10:41:02;22.30;1.00
7564;DHT22;3823;53.586;10.040;2023-05-14T10:43:29;22.30;1.00
7564;DHT22;3823;53.586;10.040;2023-05-14T10:45:57;22.50;1.00
7564;DHT22;3823;53.586;10.040;2023-05-14T10:48:23;22.40;1.00
7564;DHT22;3823;53.586;10.040;2023-05-14T10:50:50;22.00;1.00
7564;DHT22;3823;53.586;10.040;2023-05-14T10:53:16;22.20;1.00
7564;DHT22;3823;53.586;10.040;2023-05-14T10:55:43;22.20;1.00
7564;DHT22;3823;53.586;10.040;2023-05-14T10:58:11;22.30;1.00
7564;DHT22;3823;53.586;10.040;2023-05-14T11:00:38;22.50;1.00
7564;DHT22;3823;53.586;10.040;2023-05-14T11:03:05;22.20;1.00
7564;DHT22;3823;53.586;10.040;2023-05-14T11:05:31;22.30;1.00
7564;DHT22;3823;53.586;10.040;2023-05-14T11:07:58;22.30;1.00
7564;DHT22;3823;53.586;10.040;2023-05-14T11:10:24;22.60;1.00
7564;DHT22;3823;53.586;10.040;2023-05-14T11:12:56;22.50;1.00
7564;DHT22;3823;53.586;10.040;2023-05-14T11:15:24;22.30;1.00
7564;DHT22;3823;53.586;10.040;2023-05-14T11:17:51;22.50;1.00
7564;DHT22;3823;53.586;10.040;2023-05-14T11:20:18;22.40;1.00
7564;DHT22;3823;53.586;10.040;2023-05-14T11:22:45;22.40;1.00
7564;DHT22;3823;53.586;10.040;2023-05-14T11:25:11;22.80;1.00
7564;DHT22;3823;53.586;10.040;2023-05-14T11:27:42;22.90;1.00
7564;DHT22;3823;53.586;10.040;2023-05-14T11:30:15;23.00;1.00
7564;DHT22;3823;53.586;10.040;2023-05-14T11:32:43;22.80;1.00
7564;DHT22;3823;53.586;10.040;2023-05-14T11:35:09;22.80;1.00
7564;DHT22;3823;53.586;10.040;2023-05-14T11:37:35;22.90;1.00
7564;DHT22;3823;53.586;10.040;2023-05-14T11:40:00;22.80;1.00
7564;DHT22;3823;53.586;10.040;2023-05-14T11:42:26;22.40;1.00
7564;DHT22;3823;53.586;10.040;2023-05-14T11:44:52;22.20;1.00
7564;DHT22;3823;53.586;10.040;2023-05-14T11:47:21;21.90;1.00
7564;DHT22;3823;53.586;10.040;2023-05-14T11:49:48;22.00;1.00
7564;DHT22;3823;53.586;10.040;2023-05-14T11:52:14;22.40;1.00
7564;DHT22;3823;53.586;10.040;2023-05-14T11:54:42;22.60;1.00
7564;DHT22;3823;53.586;10.040;2023-05-14T11:57:10;22.40;1.00
7564;DHT22;3823;53.586;10.040;2023-05-14T11:59:36;22.40;1.00
7564;DHT22;3823;53.586;10.040;2023-05-14T12:02:02;22.50;1.00
7564;DHT22;3823;53.586;10.040;2023-05-14T12:04:29;22.60;1.00
7564;DHT22;3823;53.586;10.040;2023-05-14T12:06:58;22.60;1.00
7564;DHT22;3823;53.586;10.040;2023-05-14T12:09:23;22.80;1.00
7564;DHT22;3823;53.586;10.040;2023-05-14T12:11:50;22.50;1.00
7564;DHT22;3823;53.586;10.040;2023-05-14T12:14:18;22.40;1.00
7564;DHT22;3823;53.586;10.040;2023-05-14T12:16:44;22.10;1.00
7564;DHT22;3823;53.586;10.040;2023-05-14T12:19:12;22.00;1.00
7564;DHT22;3823;53.586;10.040;2023-05-14T12:21:38;22.30;1.00
7564;DHT22;3823;53.586;10.040;2023-05-14T12:24:15;22.40;1.00
7564;DHT22;3823;53.586;10.040;2023-05-14T12:26:45;22.80;1.00
7564;DHT22;3823;53.586;10.040;2023-05-14T12:29:13;22.90;1.00
7564;DHT22;3823;53.586;10.040;2023-05-14T12:31:45;22.70;1.00
7564;DHT22;3823;53.586;10.040;2023-05-14T12:34:11;22.60;1.00
7564;DHT22;3823;53.586;10.040;2023-05-14T12:36:37;22.40;1.00
7564;DHT22;3823;53.586;10.040;2023-05-14T12:39:02;22.20;1.00
7564;DHT22;3823;53.586;10.040;2023-05-14T12:41:29;22.30;1.00
7564;DHT22;3823;53.586;10.040;2023-05-14T12:43:55;22.40;1.00
7564;DHT22;3823;53.586;10.040;2023-05-14T12:46:21;22.30;1.00
7564;DHT22;3823;53.586;10.040;2023-05-14T12:48:47;22.40;1.00
7564;DHT22;3823;53.586;10.040;2023-05-14T12:51:13;22.30;1.00
7564;DHT22;3823;53.586;10.040;2023-05-14T12:53:39;22.20;1.00
7564;DHT22;3823;53.586;10.040;2023-05-14T12:56:05;22.20;1.00
7564;DHT22;3823;53.586;10.040;2023-05-14T12:58:31;22.20;1.00
7564;DHT22;3823;53.586;10.040;2023-05-14T13:00:56;22.00;1.00
7564;DHT22;3823;53.586;10.040;2023-05-14T13:03:22;22.30;1.00
7564;DHT22;3823;53.586;10.040;2023-05-14T13:05:47;22.50;1.00
7564;DHT22;3823;53.586;10.040;2023-05-14T13:08:13;22.70;1.00
7564;DHT22;3823;53.586;10.040;2023-05-14T13:10:42;22.70;1.00
7564;DHT22;3823;53.586;10.040;2023-05-14T13:13:09;23.00;1.00
7564;DHT22;3823;53.586;10.040;2023-05-14T13:15:36;22.90;1.00
7564;DHT22;3823;53.586;10.040;2023-05-14T13:18:01;23.00;1.00
7564;DHT22;3823;53.586;10.040;2023-05-14T13:20:27;23.30;1.00
7564;DHT22;3823;53.586;10.040;2023-05-14T13:22:53;23.10;1.00
7564;DHT22;3823;53.586;10.040;2023-05-14T13:25:19;23.20;1.00
7564;DHT22;3823;53.586;10.040;2023-05-14T13:27:44;23.10;1.00
7564;DHT22;3823;53.586;10.040;2023-05-14T13:30:10;22.90;1.00
7564;DHT22;3823;53.586;10.040;2023-05-14T13:32:36;22.40;1.00
7564;DHT22;3823;53.586;10.040;2023-05-14T13:35:02;22.20;1.00
7564;DHT22;3823;53.586;10.040;2023-05-14T13:37:27;22.10;1.00
7564;DHT22;3823;53.586;10.040;2023-05-14T13:39:53;22.10;1.00
7564;DHT22;3823;53.586;10.040;2023-05-14T13:42:18;21.90;1.00
7564;DHT22;3823;53.586;10.040;2023-05-14T13:44:44;21.80;1.00
7564;DHT22;3823;53.586;10.040;2023-05-14T13:47:09;21.80;1.00
7564;DHT22;3823;53.586;10.040;2023-05-14T13:49:35;21.20;1.00
7564;DHT22;3823;53.586;10.040;2023-05-14T13:52:00;20.60;1.00
7564;DHT22;3823;53.586;10.040;2023-05-14T13:54:26;20.50;1.00
7564;DHT22;3823;53.586;10.040;2023-05-14T13:56:51;20.70;1.00
7564;DHT22;3823;53.586;10.040;2023-05-14T13:59:17;20.80;1.00
7564;DHT22;3823;53.586;10.040;2023-05-14T14:01:43;21.00;1.00
7564;DHT22;3823;53.586;10.040;2023-05-14T14:04:09;21.10;1.00
7564;DHT22;3823;53.586;10.040;2023-05-14T14:06:34;21.30;1.00
7564;DHT22;3823;53.586;10.040;2023-05-14T14:09:00;21.40;1.00
7564;DHT22;3823;53.586;10.040;2023-05-14T14:11:26;21.70;1.00
7564;DHT22;3823;53.586;10.040;2023-05-14T14:13:52;21.70;1.00
7564;DHT22;3823;53.586;10.040;2023-05-14T14:16:17;22.00;1.00
7564;DHT22;3823;53.586;10.040;2023-05-14T14:18:43;22.10;1.00
7564;DHT22;3823;53.586;10.040;2023-05-14T14:21:09;22.20;1.00
7564;DHT22;3823;53.586;10.040;2023-05-14T14:23:34;22.20;1.00
7564;DHT22;3823;53.586;10.040;2023-05-14T14:26:00;22.20;1.00
7564;DHT22;3823;53.586;10.040;2023-05-14T14:28:25;22.40;1.00
7564;DHT22;3823;53.586;10.040;2023-05-14T14:30:51;22.50;1.00
7564;DHT22;3823;53.586;10.040;2023-05-14T14:33:17;22.50;1.00
7564;DHT22;3823;53.586;10.040;2023-05-14T14:35:42;22.60;1.00
7564;DHT22;3823;53.586;10.040;2023-05-14T14:38:08;22.50;1.00
7564;DHT22;3823;53.586;10.040;2023-05-14T14:40:33;22.50;1.00
7564;DHT22;3823;53.586;10.040;2023-05-14T14:42:59;22.50;1.00
7564;DHT22;3823;53.586;10.040;2023-05-14T14:45:26;22.50;1.00
7564;DHT22;3823;53.586;10.040;2023-05-14T14:48:28;22.50;1.00
7564;DHT22;3823;53.586;10.040;2023-05-14T14:50:56;22.70;1.00
7564;DHT22;3823;53.586;10.040;2023-05-14T14:53:22;22.80;1.00
7564;DHT22;3823;53.586;10.040;2023-05-14T14:55:48;22.90;1.00
7564;DHT22;3823;53.586;10.040;2023-05-14T14:58:14;22.40;1.00
7564;DHT22;3823;53.586;10.040;2023-05-14T15:00:40;22.30;1.00
7564;DHT22;3823;53.586;10.040;2023-05-14T15:03:06;22.40;1.00
7564;DHT22;3823;53.586;10.040;2023-05-14T15:05:33;22.60;1.00
7564;DHT22;3823;53.586;10.040;2023-05-14T15:07:59;22.80;1.00
7564;DHT22;3823;53.586;10.040;2023-05-14T15:10:26;22.90;1.00
7564;DHT22;3823;53.586;10.040;2023-05-14T15:12:53;23.00;1.00
7564;DHT22;3823;53.586;10.040;2023-05-14T15:15:19;23.10;1.00
7564;DHT22;3823;53.586;10.040;2023-05-14T15:17:45;23.10;1.00
7564;DHT22;3823;53.586;10.040;2023-05-14T15:20:11;23.30;1.00
7564;DHT22;3823;53.586;10.040;2023-05-14T15:22:36;23.40;1.00
7564;DHT22;3823;53.586;10.040;2023-05-14T15:25:02;23.50;1.00
7564;DHT22;3823;53.586;10.040;2023-05-14T15:27:29;23.40;1.00
7564;DHT22;3823;53.586;10.040;2023-05-14T15:29:54;23.30;1.00
7564;DHT22;3823;53.586;10.040;2023-05-14T15:32:20;23.10;1.00
7564;DHT22;3823;53.586;10.040;2023-05-14T15:34:46;23.10;1.00
7564;DHT22;3823;53.586;10.040;2023-05-14T15:37:11;22.90;1.00
7564;DHT22;3823;53.586;10.040;2023-05-14T15:39:37;23.00;1.00
7564;DHT22;3823;53.586;10.040;2023-05-14T15:42:03;22.80;1.00
7564;DHT22;3823;53.586;10.040;2023-05-14T15:44:29;22.80;1.00
7564;DHT22;3823;53.586;10.040;2023-05-14T15:46:54;22.70;1.00
7564;DHT22;3823;53.586;10.040;2023-05-14T15:49:20;22.70;1.00
7564;DHT22;3823;53.586;10.040;2023-05-14T15:51:46;22.60;1.00
7564;DHT22;3823;53.586;10.040;2023-05-14T15:54:11;22.40;1.00
7564;DHT22;3823;53.586;10.040;2023-05-14T15:56:37;22.40;1.00
7564;DHT22;3823;53.586;10.040;2023-05-14T15:59:02;22.50;1.00
7564;DHT22;3823;53.586;10.040;2023-05-14T16:01:28;22.40;1.00
7564;DHT22;3823;53.586;10.040;2023-05-14T16:03:53;22.20;1.00
7564;DHT22;3823;53.586;10.040;2023-05-14T16:06:19;22.00;1.00
7564;DHT22;3823;53.586;10.040;2023-05-14T16:08:45;21.90;1.00
7564;DHT22;3823;53.586;10.040;2023-05-14T16:11:10;22.00;1.00
7564;DHT22;3823;53.586;10.040;2023-05-14T16:13:36;22.00;1.00
7564;DHT22;3823;53.586;10.040;2023-05-14T16:16:03;22.10;1.00
7564;DHT22;3823;53.586;10.040;2023-05-14T16:18:28;22.20;1.00
7564;DHT22;3823;53.586;10.040;2023-05-14T16:20:54;22.20;1.00
7564;DHT22;3823;53.586;10.040;2023-05-14T16:23:20;22.00;1.00
7564;DHT22;3823;53.586;10.040;2023-05-14T16:25:46;22.00;1.00
7564;DHT22;3823;53.586;10.040;2023-05-14T16:28:12;21.90;1.00
7564;DHT22;3823;53.586;10.040;2023-05-14T16:30:37;22.00;1.00
7564;DHT22;3823;53.586;10.040;2023-05-14T16:33:03;22.00;1.00
7564;DHT22;3823;53.586;10.040;2023-05-14T16:35:28;21.90;1.00
7564;DHT22;3823;53.586;10.040;2023-05-14T16:37:54;21.80;1.00
7564;DHT22;3823;53.586;10.040;2023-05-14T16:40:20;21.70;1.00
7564;DHT22;3823;53.586;10.040;2023-05-14T16:42:47;21.60;1.00
7564;DHT22;3823;53.586;10.040;2023-05-14T16:45:12;21.60;1.00
7564;DHT22;3823;53.586;10.040;2023-05-14T16:47:38;21.70;1.00
7564;DHT22;3823;53.586;10.040;2023-05-14T16:50:04;21.70;1.00
7564;DHT22;3823;53.586;10.040;2023-05-14T16:52:30;21.80;1.00
7564;DHT22;3823;53.586;10.040;2023-05-14T16:54:56;21.90;1.00
7564;DHT22;3823;53.586;10.040;2023-05-14T16:57:21;21.80;1.00
7564;DHT22;3823;53.586;10.040;2023-05-14T16:59:47;21.80;1.00
7564;DHT22;3823;53.586;10.040;2023-05-14T17:02:12;21.70;1.00
7564;DHT22;3823;53.586;10.040;2023-05-14T17:04:38;21.70;1.00
7564;DHT22;3823;53.586;10.040;2023-05-14T17:07:06;21.70;1.00
7564;DHT22;3823;53.586;10.040;2023-05-14T17:09:32;21.80;1.00
7564;DHT22;3823;53.586;10.040;2023-05-14T17:11:57;21.80;1.00
7564;DHT22;3823;53.586;10.040;2023-05-14T17:14:23;21.60;1.00
7564;DHT22;3823;53.586;10.040;2023-05-14T17:16:48;21.50;1.00
7564;DHT22;3823;53.586;10.040;2023-05-14T17:19:14;21.30;1.00
7564;DHT22;3823;53.586;10.040;2023-05-14T17:21:39;21.10;1.00
7564;DHT22;3823;53.586;10.040;2023-05-14T17:24:05;21.10;1.00
7564;DHT22;3823;53.586;10.040;2023-05-14T17:26:31;21.10;1.00
7564;DHT22;3823;53.586;10.040;2023-05-14T17:28:56;21.10;1.00
7564;DHT22;3823;53.586;10.040;2023-05-14T17:31:22;21.00;1.00
7564;DHT22;3823;53.586;10.040;2023-05-14T17:33:48;21.10;1.00
7564;DHT22;3823;53.586;10.040;2023-05-14T17:36:13;21.20;1.00
7564;DHT22;3823;53.586;10.040;2023-05-14T17:38:39;21.10;1.00
7564;DHT22;3823;53.586;10.040;2023-05-14T17:41:05;21.10;1.00
7564;DHT22;3823;53.586;10.040;2023-05-14T17:43:31;21.10;1.00
7564;DHT22;3823;53.586;10.040;2023-05-14T17:45:56;21.10;1.00
7564;DHT22;3823;53.586;10.040;2023-05-14T17:48:22;21.20;1.00
7564;DHT22;3823;53.586;10.040;2023-05-14T17:50:48;21.10;1.00
7564;DHT22;3823;53.586;10.040;2023-05-14T17:53:15;21.00;1.00
7564;DHT22;3823;53.586;10.040;2023-05-14T17:55:40;21.00;1.00
7564;DHT22;3823;53.586;10.040;2023-05-14T17:58:11;21.00;1.00
7564;DHT22;3823;53.586;10.040;2023-05-14T18:00:39;20.90;1.00
7564;DHT22;3823;53.586;10.040;2023-05-14T18:03:04;21.00;1.00
7564;DHT22;3823;53.586;10.040;2023-05-14T18:05:32;21.00;1.00
7564;DHT22;3823;53.586;10.040;2023-05-14T18:07:58;21.10;1.00
7564;DHT22;3823;53.586;10.040;2023-05-14T18:10:24;21.10;1.00
7564;DHT22;3823;53.586;10.040;2023-05-14T18:12:50;21.10;1.00
7564;DHT22;3823;53.586;10.040;2023-05-14T18:15:16;21.20;1.00
7564;DHT22;3823;53.586;10.040;2023-05-14T18:17:41;21.20;1.00
7564;DHT22;3823;53.586;10.040;2023-05-14T18:20:07;21.20;1.00
7564;DHT22;3823;53.586;10.040;2023-05-14T18:22:33;21.20;1.00
7564;DHT22;3823;53.586;10.040;2023-05-14T18:24:58;21.20;1.00
7564;DHT22;3823;53.586;10.040;2023-05-14T18:27:24;21.10;1.00
7564;DHT22;3823;53.586;10.040;2023-05-14T18:29:50;21.10;1.00
7564;DHT22;3823;53.586;10.040;2023-05-14T18:32:16;21.10;1.00
7564;DHT22;3823;53.586;10.040;2023-05-14T18:34:41;21.00;1.00
7564;DHT22;3823;53.586;10.040;2023-05-14T18:37:07;20.90;1.00
7564;DHT22;3823;53.586;10.040;2023-05-14T18:39:33;20.90;1.00
7564;DHT22;3823;53.586;10.040;2023-05-14T18:41:59;20.80;1.00
7564;DHT22;3823;53.586;10.040;2023-05-14T18:44:25;20.80;1.00
7564;DHT22;3823;53.586;10.040;2023-05-14T18:46:51;20.70;1.00
7564;DHT22;3823;53.586;10.040;2023-05-14T18:49:16;20.50;1.00
7564;DHT22;3823;53.586;10.040;2023-05-14T18:51:42;20.60;1.00
7564;DHT22;3823;53.586;10.040;2023-05-14T18:54:07;20.60;1.00
7564;DHT22;3823;53.586;10.040;2023-05-14T18:56:34;20.50;1.00
7564;DHT22;3823;53.586;10.040;2023-05-14T18:59:01;20.50;1.00
7564;DHT22;3823;53.586;10.040;2023-05-14T19:01:26;20.50;1.00
7564;DHT22;3823;53.586;10.040;2023-05-14T19:03:52;20.50;1.00
7564;DHT22;3823;53.586;10.040;2023-05-14T19:06:18;20.50;1.00
7564;DHT22;3823;53.586;10.040;2023-05-14T19:08:43;20.40;1.00
7564;DHT22;3823;53.586;10.040;2023-05-14T19:11:10;20.30;1.00
7564;DHT22;3823;53.586;10.040;2023-05-14T19:13:35;20.30;1.00
7564;DHT22;3823;53.586;10.040;2023-05-14T19:16:01;20.20;1.00
7564;DHT22;3823;53.586;10.040;2023-05-14T19:18:26;20.10;1.00
7564;DHT22;3823;53.586;10.040;2023-05-14T19:20:52;20.10;1.00
7564;DHT22;3823;53.586;10.040;2023-05-14T19:23:17;20.00;1.00
7564;DHT22;3823;53.586;10.040;2023-05-14T19:25:43;20.00;1.00
7564;DHT22;3823;53.586;10.040;2023-05-14T19:28:09;20.10;1.00
7564;DHT22;3823;53.586;10.040;2023-05-14T19:30:35;20.10;1.00
7564;DHT22;3823;53.586;10.040;2023-05-14T19:33:00;20.00;1.00
7564;DHT22;3823;53.586;10.040;2023-05-14T19:35:26;20.00;1.00
7564;DHT22;3823;53.586;10.040;2023-05-14T19:37:52;19.90;1.00
7564;DHT22;3823;53.586;10.040;2023-05-14T19:40:17;19.90;1.00
7564;DHT22;3823;53.586;10.040;2023-05-14T19:42:45;19.90;1.00
7564;DHT22;3823;53.586;10.040;2023-05-14T19:45:10;19.80;1.00
7564;DHT22;3823;53.586;10.040;2023-05-14T19:47:36;19.80;1.00
7564;DHT22;3823;53.586;10.040;2023-05-14T19:50:02;19.70;1.00
7564;DHT22;3823;53.586;10.040;2023-05-14T19:52:27;19.60;1.00
7564;DHT22;3823;53.586;10.040;2023-05-14T19:54:53;19.60;1.00
7564;DHT22;3823;53.586;10.040;2023-05-14T19:57:18;19.60;1.00